createdAt,value
2018-09-13T00:00:17.481Z,19.11
2018-09-13T00:01:17.465Z,19.17
2018-09-13T00:02:18.201Z,19.08
2018-09-13T00:03:17.432Z,19.15
2018-09-13T00:04:17.412Z,19.13
2018-09-13T00:05:17.395Z,19.13
2018-09-13T00:06:17.379Z,19.13
2018-09-13T00:07:17.361Z,19.11
2018-09-13T00:08:17.344Z,19.14
2018-09-13T00:09:17.327Z,19.14
2018-09-13T00:10:17.339Z,19.17
2018-09-13T00:11:17.293Z,19.08
2018-09-13T00:12:17.276Z,19.08
2018-09-13T00:13:17.260Z,19.15
2018-09-13T00:14:17.243Z,19.13
2018-09-13T00:15:17.225Z,19.06
2018-09-13T00:16:17.207Z,19.06
2018-09-13T00:17:17.190Z,19.05
2018-09-13T00:18:17.176Z,18.99
2018-09-13T00:19:17.155Z,19.02
2018-09-13T00:20:17.139Z,19.02
2018-09-13T00:21:17.122Z,19.01
2018-09-13T00:22:17.104Z,18.97
2018-09-13T00:23:17.086Z,18.97
2018-09-13T00:24:17.070Z,18.94
2018-09-13T00:25:17.053Z,18.99
2018-09-13T00:26:17.037Z,18.99
2018-09-13T00:27:17.017Z,18.97
2018-09-13T00:28:17.000Z,19.01
2018-09-13T00:29:17.735Z,19.02
2018-09-13T00:30:16.967Z,19.06
2018-09-13T00:31:16.949Z,19.02
2018-09-13T00:32:16.936Z,18.99
2018-09-13T00:33:16.915Z,18.94
2018-09-13T00:34:16.898Z,19.01
2018-09-13T00:35:16.881Z,18.97
2018-09-13T00:36:16.863Z,18.97
2018-09-13T00:37:16.848Z,18.91
2018-09-13T00:38:16.832Z,18.94
2018-09-13T00:39:16.813Z,18.91
2018-09-13T00:40:16.794Z,18.94
2018-09-13T00:41:16.778Z,18.84
2018-09-13T00:42:16.762Z,18.90
2018-09-13T00:43:16.742Z,18.82
2018-09-13T00:44:16.727Z,18.82
2018-09-13T00:45:17.459Z,18.84
2018-09-13T00:46:16.692Z,18.82
2018-09-13T00:47:16.673Z,18.83
2018-09-13T00:48:16.656Z,18.82
2018-09-13T00:49:16.639Z,18.82
2018-09-13T00:50:16.623Z,18.86
2018-09-13T00:51:16.612Z,18.76
2018-09-13T00:52:16.588Z,18.77
2018-09-13T00:53:16.571Z,18.80
2018-09-13T00:54:16.552Z,18.74
2018-09-13T00:55:16.536Z,18.68
2018-09-13T00:56:16.517Z,18.74
2018-09-13T00:57:16.504Z,18.70
2018-09-13T00:58:16.484Z,18.74
2018-09-13T00:59:16.466Z,18.82
2018-09-13T01:00:16.451Z,18.77
2018-09-13T01:01:17.181Z,18.84
2018-09-13T01:02:16.414Z,18.77
2018-09-13T01:03:16.394Z,18.79
2018-09-13T01:04:16.377Z,18.77
2018-09-13T01:05:16.361Z,18.74
2018-09-13T01:06:16.343Z,18.74
2018-09-13T01:07:16.325Z,18.86
2018-09-13T01:08:16.309Z,18.73
2018-09-13T01:09:16.292Z,18.82
2018-09-13T01:10:16.274Z,18.86
2018-09-13T01:11:16.255Z,18.74
2018-09-13T01:12:16.239Z,18.79
2018-09-13T01:13:16.221Z,18.74
2018-09-13T01:14:16.204Z,18.73
2018-09-13T01:15:16.189Z,18.72
2018-09-13T01:16:16.169Z,18.77
2018-09-13T01:17:16.152Z,18.74
2018-09-13T01:18:16.135Z,18.80
2018-09-13T01:19:16.117Z,18.79
2018-09-13T01:20:16.098Z,18.72
2018-09-13T01:21:16.081Z,18.79
2018-09-13T01:22:16.064Z,18.77
2018-09-13T01:23:16.045Z,18.79
2018-09-13T01:24:16.028Z,18.76
2018-09-13T01:25:16.011Z,18.68
2018-09-13T01:26:15.996Z,18.62
2018-09-13T01:27:15.976Z,18.70
2018-09-13T01:28:15.958Z,18.62
2018-09-13T01:29:15.942Z,18.70
2018-09-13T01:30:15.925Z,18.64
2018-09-13T01:31:15.906Z,18.59
2018-09-13T01:32:15.888Z,18.59
2018-09-13T01:33:15.872Z,18.57
2018-09-13T01:34:15.854Z,18.54
2018-09-13T01:35:15.836Z,18.52
2018-09-13T01:36:15.820Z,18.54
2018-09-13T01:37:15.801Z,18.50
2018-09-13T01:38:17.289Z,18.57
2018-09-13T01:39:15.768Z,18.46
2018-09-13T01:40:15.750Z,18.50
2018-09-13T01:41:15.732Z,18.54
2018-09-13T01:42:15.718Z,18.54
2018-09-13T01:43:15.698Z,18.55
2018-09-13T01:44:15.680Z,18.46
2018-09-13T01:45:15.663Z,18.46
2018-09-13T01:46:15.644Z,18.42
2018-09-13T01:47:15.633Z,18.52
2018-09-13T01:48:15.609Z,18.43
2018-09-13T01:49:15.592Z,18.39
2018-09-13T01:50:15.574Z,18.42
2018-09-13T01:51:15.556Z,18.44
2018-09-13T01:52:15.539Z,18.47
2018-09-13T01:53:15.522Z,18.43
2018-09-13T01:54:15.505Z,18.40
2018-09-13T01:55:15.486Z,18.39
2018-09-13T01:56:15.469Z,18.34
2018-09-13T01:57:15.452Z,18.34
2018-09-13T01:58:15.434Z,18.46
2018-09-13T01:59:15.414Z,18.37
2018-09-13T02:00:15.397Z,18.39
2018-09-13T02:01:15.380Z,18.31
2018-09-13T02:02:15.363Z,18.24
2018-09-13T02:03:15.345Z,18.28
2018-09-13T02:04:15.326Z,18.25
2018-09-13T02:05:15.310Z,18.29
2018-09-13T02:06:15.292Z,18.33
2018-09-13T02:07:15.273Z,18.27
2018-09-13T02:08:15.255Z,18.29
2018-09-13T02:09:15.238Z,18.33
2018-09-13T02:10:15.220Z,18.27
2018-09-13T02:11:15.202Z,18.25
2018-09-13T02:12:15.184Z,18.22
2018-09-13T02:13:15.166Z,18.21
2018-09-13T02:14:15.149Z,18.07
2018-09-13T02:15:15.133Z,18.27
2018-09-13T02:16:15.112Z,18.27
2018-09-13T02:17:15.095Z,18.29
2018-09-13T02:18:15.077Z,18.27
2018-09-13T02:19:15.061Z,18.21
2018-09-13T02:20:15.041Z,18.24
2018-09-13T02:21:15.076Z,18.18
2018-09-13T02:22:15.007Z,18.25
2018-09-13T02:23:14.988Z,18.21
2018-09-13T02:24:14.969Z,18.17
2018-09-13T02:25:14.954Z,18.19
2018-09-13T02:26:14.933Z,18.15
2018-09-13T02:27:14.916Z,18.19
2018-09-13T02:28:14.897Z,18.18
2018-09-13T02:29:14.881Z,18.17
2018-09-13T02:30:14.862Z,18.17
2018-09-13T02:31:14.844Z,18.17
2018-09-13T02:32:14.825Z,18.13
2018-09-13T02:33:14.808Z,18.10
2018-09-13T02:34:14.791Z,18.07
2018-09-13T02:35:14.772Z,18.00
2018-09-13T02:36:14.753Z,18.07
2018-09-13T02:37:14.740Z,18.02
2018-09-13T02:38:14.717Z,17.94
2018-09-13T02:39:14.701Z,17.99
2018-09-13T02:40:14.682Z,17.92
2018-09-13T02:41:14.663Z,18.00
2018-09-13T02:42:14.647Z,18.03
2018-09-13T02:43:14.628Z,18.03
2018-09-13T02:44:14.608Z,18.06
2018-09-13T02:45:14.594Z,18.09
2018-09-13T02:46:14.573Z,18.02
2018-09-13T02:47:14.555Z,17.97
2018-09-13T02:48:14.537Z,17.92
2018-09-13T02:49:14.562Z,17.91
2018-09-13T02:50:14.501Z,18.03
2018-09-13T02:51:14.482Z,17.92
2018-09-13T02:52:14.465Z,17.89
2018-09-13T02:53:14.447Z,17.91
2018-09-13T02:54:14.430Z,17.92
2018-09-13T02:55:14.413Z,17.92
2018-09-13T02:56:14.393Z,17.88
2018-09-13T02:57:14.375Z,17.88
2018-09-13T02:58:14.356Z,17.82
2018-09-13T02:59:14.348Z,17.81
2018-09-13T03:00:14.320Z,17.89
2018-09-13T03:01:14.302Z,17.87
2018-09-13T03:02:14.285Z,17.89
2018-09-13T03:03:14.265Z,17.87
2018-09-13T03:04:14.248Z,17.91
2018-09-13T03:05:14.280Z,17.97
2018-09-13T03:06:14.213Z,17.92
2018-09-13T03:07:14.194Z,17.89
2018-09-13T03:08:14.224Z,17.95
2018-09-13T03:09:14.909Z,17.88
2018-09-13T03:10:14.140Z,17.89
2018-09-13T03:11:14.120Z,17.79
2018-09-13T03:12:14.105Z,17.85
2018-09-13T03:13:14.085Z,17.87
2018-09-13T03:14:14.067Z,17.82
2018-09-13T03:15:14.048Z,17.82
2018-09-13T03:16:14.031Z,17.73
2018-09-13T03:17:14.013Z,17.73
2018-09-13T03:18:13.994Z,17.76
2018-09-13T03:19:13.982Z,17.79
2018-09-13T03:20:13.959Z,17.74
2018-09-13T03:21:13.941Z,17.76
2018-09-13T03:22:13.923Z,17.78
2018-09-13T03:23:13.904Z,17.79
2018-09-13T03:24:13.886Z,17.78
2018-09-13T03:25:13.869Z,17.78
2018-09-13T03:26:13.850Z,17.70
2018-09-13T03:27:13.834Z,17.91
2018-09-13T03:28:13.814Z,17.87
2018-09-13T03:29:13.797Z,17.79
2018-09-13T03:30:13.777Z,17.85
2018-09-13T03:31:13.766Z,17.81
2018-09-13T03:32:13.741Z,17.87
2018-09-13T03:33:13.722Z,17.81
2018-09-13T03:34:13.704Z,17.78
2018-09-13T03:35:13.685Z,17.76
2018-09-13T03:36:13.668Z,17.79
2018-09-13T03:37:13.651Z,17.74
2018-09-13T03:38:13.633Z,17.73
2018-09-13T03:39:13.613Z,17.76
2018-09-13T03:40:13.599Z,17.73
2018-09-13T03:41:13.579Z,17.81
2018-09-13T03:42:13.559Z,17.74
2018-09-13T03:43:13.541Z,17.78
2018-09-13T03:44:13.522Z,17.74
2018-09-13T03:45:13.506Z,17.71
2018-09-13T03:46:13.486Z,17.78
2018-09-13T03:47:14.219Z,17.78
2018-09-13T03:48:13.449Z,17.67
2018-09-13T03:49:13.432Z,17.71
2018-09-13T03:50:13.413Z,17.76
2018-09-13T03:51:13.395Z,17.67
2018-09-13T03:52:13.377Z,17.76
2018-09-13T03:53:13.361Z,17.73
2018-09-13T03:54:13.341Z,17.76
2018-09-13T03:55:13.322Z,17.70
2018-09-13T03:56:13.304Z,17.70
2018-09-13T03:57:13.286Z,17.64
2018-09-13T03:58:13.268Z,17.69
2018-09-13T03:59:13.249Z,17.70
2018-09-13T04:00:13.231Z,17.69
2018-09-13T04:01:13.213Z,17.66
2018-09-13T04:02:13.195Z,17.69
2018-09-13T04:03:13.208Z,17.70
2018-09-13T04:04:13.159Z,17.69
2018-09-13T04:05:13.140Z,17.73
2018-09-13T04:06:13.122Z,17.73
2018-09-13T04:07:13.163Z,17.66
2018-09-13T04:08:13.092Z,17.69
2018-09-13T04:09:13.073Z,17.66
2018-09-13T04:10:13.049Z,17.73
2018-09-13T04:11:13.032Z,17.73
2018-09-13T04:12:13.013Z,17.67
2018-09-13T04:13:12.994Z,17.71
2018-09-13T04:14:12.977Z,17.66
2018-09-13T04:15:12.959Z,17.67
2018-09-13T04:16:12.940Z,17.59
2018-09-13T04:17:12.921Z,17.62
2018-09-13T04:18:12.904Z,17.57
2018-09-13T04:19:12.885Z,17.59
2018-09-13T04:20:12.867Z,17.62
2018-09-13T04:21:12.849Z,17.57
2018-09-13T04:22:12.831Z,17.57
2018-09-13T04:23:12.814Z,17.47
2018-09-13T04:24:12.794Z,17.43
2018-09-13T04:25:12.776Z,17.44
2018-09-13T04:26:12.758Z,17.38
2018-09-13T04:27:12.740Z,17.38
2018-09-13T04:28:12.722Z,17.33
2018-09-13T04:29:13.455Z,17.32
2018-09-13T04:30:12.686Z,17.36
2018-09-13T04:31:12.666Z,17.33
2018-09-13T04:32:12.660Z,17.32
2018-09-13T04:33:12.648Z,17.35
2018-09-13T04:34:12.612Z,17.36
2018-09-13T04:35:12.592Z,17.32
2018-09-13T04:36:12.662Z,17.33
2018-09-13T04:37:12.557Z,17.30
2018-09-13T04:38:12.538Z,17.32
2018-09-13T04:39:12.520Z,17.40
2018-09-13T04:40:13.253Z,17.33
2018-09-13T04:41:12.483Z,17.38
2018-09-13T04:42:12.465Z,17.35
2018-09-13T04:43:12.446Z,17.38
2018-09-13T04:44:12.432Z,17.38
2018-09-13T04:45:12.410Z,17.40
2018-09-13T04:46:12.392Z,17.40
2018-09-13T04:47:12.373Z,17.44
2018-09-13T04:48:12.355Z,17.40
2018-09-13T04:49:12.422Z,17.54
2018-09-13T04:50:12.320Z,17.51
2018-09-13T04:51:12.300Z,17.50
2018-09-13T04:52:12.282Z,17.53
2018-09-13T04:53:12.265Z,17.50
2018-09-13T04:54:12.249Z,17.57
2018-09-13T04:55:12.227Z,17.51
2018-09-13T04:56:12.209Z,17.57
2018-09-13T04:57:12.190Z,17.47
2018-09-13T04:58:12.172Z,17.50
2018-09-13T04:59:12.153Z,17.46
2018-09-13T05:00:12.141Z,17.43
2018-09-13T05:01:12.117Z,17.46
2018-09-13T05:02:12.100Z,17.44
2018-09-13T05:03:12.082Z,17.35
2018-09-13T05:04:12.062Z,17.32
2018-09-13T05:05:12.053Z,17.41
2018-09-13T05:06:12.027Z,17.41
2018-09-13T05:07:12.007Z,17.40
2018-09-13T05:08:11.990Z,17.50
2018-09-13T05:09:11.971Z,17.57
2018-09-13T05:10:11.952Z,17.54
2018-09-13T05:11:11.933Z,17.57
2018-09-13T05:12:11.915Z,17.53
2018-09-13T05:13:11.897Z,17.50
2018-09-13T05:14:11.882Z,17.50
2018-09-13T05:15:11.860Z,17.50
2018-09-13T05:16:11.841Z,17.54
2018-09-13T05:17:11.829Z,17.54
2018-09-13T05:18:11.805Z,17.62
2018-09-13T05:19:11.822Z,17.63
2018-09-13T05:20:11.769Z,17.59
2018-09-13T05:21:11.750Z,17.62
2018-09-13T05:22:11.735Z,17.64
2018-09-13T05:23:11.713Z,17.62
2018-09-13T05:24:11.701Z,17.59
2018-09-13T05:25:11.677Z,17.50
2018-09-13T05:26:11.658Z,17.54
2018-09-13T05:27:11.640Z,17.51
2018-09-13T05:28:11.621Z,17.57
2018-09-13T05:29:11.604Z,17.51
2018-09-13T05:30:11.585Z,17.51
2018-09-13T05:31:11.567Z,17.50
2018-09-13T05:32:11.548Z,17.55
2018-09-13T05:33:11.529Z,17.43
2018-09-13T05:34:11.512Z,17.36
2018-09-13T05:35:11.492Z,17.36
2018-09-13T05:36:11.475Z,17.38
2018-09-13T05:37:11.456Z,17.32
2018-09-13T05:38:11.439Z,17.30
2018-09-13T05:39:11.419Z,17.35
2018-09-13T05:40:11.401Z,17.33
2018-09-13T05:41:11.384Z,17.36
2018-09-13T05:42:11.366Z,17.32
2018-09-13T05:43:11.346Z,17.40
2018-09-13T05:44:11.336Z,17.30
2018-09-13T05:45:11.309Z,17.28
2018-09-13T05:46:11.291Z,17.40
2018-09-13T05:47:11.272Z,17.32
2018-09-13T05:48:11.258Z,17.30
2018-09-13T05:49:11.237Z,17.28
2018-09-13T05:50:11.217Z,17.29
2018-09-13T05:51:11.272Z,17.30
2018-09-13T05:52:11.184Z,17.38
2018-09-13T05:53:11.167Z,17.43
2018-09-13T05:54:11.149Z,17.35
2018-09-13T05:55:11.130Z,17.40
2018-09-13T05:56:11.109Z,17.46
2018-09-13T05:57:11.099Z,17.54
2018-09-13T05:58:11.078Z,17.54
2018-09-13T05:59:11.052Z,17.54
2018-09-13T06:00:11.049Z,17.59
2018-09-13T06:01:11.020Z,17.57
2018-09-13T06:02:10.998Z,17.66
2018-09-13T06:03:10.980Z,17.67
2018-09-13T06:04:10.960Z,17.82
2018-09-13T06:05:11.697Z,17.79
2018-09-13T06:06:10.924Z,17.87
2018-09-13T06:07:10.906Z,17.88
2018-09-13T06:08:10.888Z,17.82
2018-09-13T06:09:10.870Z,17.81
2018-09-13T06:10:10.852Z,17.84
2018-09-13T06:11:10.833Z,17.91
2018-09-13T06:12:10.815Z,17.88
2018-09-13T06:13:10.799Z,17.88
2018-09-13T06:14:10.779Z,17.91
2018-09-13T06:15:10.761Z,17.95
2018-09-13T06:16:10.743Z,18.03
2018-09-13T06:17:10.726Z,17.91
2018-09-13T06:18:10.709Z,18.06
2018-09-13T06:19:10.689Z,18.02
2018-09-13T06:20:10.671Z,18.07
2018-09-13T06:21:10.654Z,18.13
2018-09-13T06:22:10.635Z,18.17
2018-09-13T06:23:10.619Z,18.09
2018-09-13T06:24:10.599Z,18.19
2018-09-13T06:25:10.580Z,18.29
2018-09-13T06:26:10.563Z,18.29
2018-09-13T06:27:10.544Z,18.29
2018-09-13T06:28:10.527Z,18.36
2018-09-13T06:29:10.509Z,18.42
2018-09-13T06:30:10.491Z,18.39
2018-09-13T06:31:10.474Z,18.40
2018-09-13T06:32:11.958Z,18.36
2018-09-13T06:33:10.459Z,18.44
2018-09-13T06:34:10.421Z,18.40
2018-09-13T06:35:10.404Z,18.44
2018-09-13T06:36:10.385Z,18.42
2018-09-13T06:37:10.370Z,18.47
2018-09-13T06:38:12.642Z,18.73
2018-09-13T06:39:10.331Z,18.61
2018-09-13T06:40:10.314Z,18.61
2018-09-13T06:41:10.299Z,18.62
2018-09-13T06:42:10.279Z,18.65
2018-09-13T06:43:10.261Z,18.70
2018-09-13T06:44:13.246Z,18.77
2018-09-13T06:45:10.225Z,18.79
2018-09-13T06:46:10.208Z,18.83
2018-09-13T06:47:10.190Z,18.84
2018-09-13T06:48:10.174Z,18.80
2018-09-13T06:49:10.158Z,18.84
2018-09-13T06:50:11.640Z,18.99
2018-09-13T06:51:10.121Z,18.95
2018-09-13T06:52:10.103Z,19.05
2018-09-13T06:53:10.086Z,19.13
2018-09-13T06:54:10.148Z,19.11
2018-09-13T06:55:10.050Z,19.24
2018-09-13T06:56:10.033Z,19.23
2018-09-13T06:57:10.016Z,19.32
2018-09-13T06:58:09.999Z,19.21
2018-09-13T06:59:09.981Z,19.23
2018-09-13T07:00:09.963Z,19.20
2018-09-13T07:01:09.947Z,19.13
2018-09-13T07:02:09.930Z,19.17
2018-09-13T07:03:09.911Z,19.08
2018-09-13T07:04:09.895Z,19.01
2018-09-13T07:05:09.877Z,19.15
2018-09-13T07:06:09.860Z,19.23
2018-09-13T07:07:10.594Z,19.35
2018-09-13T07:08:09.825Z,19.31
2018-09-13T07:09:09.899Z,19.43
2018-09-13T07:10:09.791Z,19.40
2018-09-13T07:11:09.775Z,19.51
2018-09-13T07:12:09.757Z,19.46
2018-09-13T07:13:09.741Z,19.39
2018-09-13T07:14:09.724Z,19.31
2018-09-13T07:15:09.705Z,19.43
2018-09-13T07:16:09.688Z,19.54
2018-09-13T07:17:09.670Z,19.61
2018-09-13T07:18:12.658Z,19.70
2018-09-13T07:19:09.638Z,19.72
2018-09-13T07:20:09.621Z,19.69
2018-09-13T07:21:09.601Z,19.79
2018-09-13T07:22:09.585Z,19.84
2018-09-13T07:23:09.571Z,19.84
2018-09-13T07:24:10.305Z,19.83
2018-09-13T07:25:09.535Z,19.79
2018-09-13T07:26:09.520Z,19.79
2018-09-13T07:27:09.499Z,19.88
2018-09-13T07:28:09.482Z,19.86
2018-09-13T07:29:09.465Z,19.94
2018-09-13T07:30:09.448Z,20.06
2018-09-13T07:31:09.432Z,20.08
2018-09-13T07:32:09.413Z,20.08
2018-09-13T07:33:09.397Z,20.16
2018-09-13T07:34:09.382Z,20.00
2018-09-13T07:35:13.124Z,19.93
2018-09-13T07:36:09.347Z,20.03
2018-09-13T07:37:09.329Z,19.97
2018-09-13T07:38:09.314Z,19.98
2018-09-13T07:39:09.295Z,19.94
2018-09-13T07:40:09.279Z,19.91
2018-09-13T07:41:10.013Z,20.02
2018-09-13T07:42:09.245Z,19.93
2018-09-13T07:43:09.229Z,19.91
2018-09-13T07:44:09.212Z,20.05
2018-09-13T07:45:09.195Z,20.09
2018-09-13T07:46:09.179Z,20.24
2018-09-13T07:47:09.162Z,20.28
2018-09-13T07:48:09.145Z,20.13
2018-09-13T07:49:09.153Z,20.13
2018-09-13T07:50:09.118Z,20.16
2018-09-13T07:51:09.194Z,20.25
2018-09-13T07:52:09.102Z,20.30
2018-09-13T07:53:09.061Z,20.35
2018-09-13T07:54:09.046Z,20.35
2018-09-13T07:55:09.027Z,20.42
2018-09-13T07:56:09.010Z,20.38
2018-09-13T07:57:08.996Z,20.31
2018-09-13T07:58:08.977Z,20.39
2018-09-13T07:59:08.959Z,20.28
2018-09-13T08:00:08.944Z,20.34
2018-09-13T08:01:08.928Z,20.34
2018-09-13T08:02:08.910Z,20.54
2018-09-13T08:03:08.892Z,20.47
2018-09-13T08:04:08.876Z,20.59
2018-09-13T08:05:08.913Z,20.62
2018-09-13T08:06:08.843Z,20.61
2018-09-13T08:07:08.830Z,20.64
2018-09-13T08:08:08.811Z,20.58
2018-09-13T08:09:08.792Z,20.65
2018-09-13T08:10:08.776Z,20.66
2018-09-13T08:11:08.759Z,20.53
2018-09-13T08:12:08.887Z,20.59
2018-09-13T08:13:08.726Z,20.56
2018-09-13T08:14:08.710Z,20.61
2018-09-13T08:15:08.692Z,20.62
2018-09-13T08:16:08.676Z,20.65
2018-09-13T08:17:08.659Z,20.68
2018-09-13T08:18:08.643Z,20.83
2018-09-13T08:19:08.625Z,20.84
2018-09-13T08:20:08.608Z,20.84
2018-09-13T08:21:08.623Z,20.81
2018-09-13T08:22:08.591Z,20.79
2018-09-13T08:23:08.562Z,20.87
2018-09-13T08:24:08.543Z,20.86
2018-09-13T08:25:08.527Z,20.89
2018-09-13T08:26:08.510Z,20.79
2018-09-13T08:27:08.497Z,20.83
2018-09-13T08:28:08.476Z,20.84
2018-09-13T08:29:08.459Z,20.79
2018-09-13T08:30:11.447Z,20.98
2018-09-13T08:31:08.431Z,20.99
2018-09-13T08:32:08.410Z,21.04
2018-09-13T08:33:08.423Z,21.04
2018-09-13T08:34:08.377Z,20.89
2018-09-13T08:35:08.381Z,20.98
2018-09-13T08:36:08.343Z,21.06
2018-09-13T08:37:08.352Z,21.17
2018-09-13T08:38:08.312Z,21.26
2018-09-13T08:39:08.294Z,21.26
2018-09-13T08:40:08.287Z,21.29
2018-09-13T08:41:08.261Z,21.20
2018-09-13T08:42:08.245Z,21.36
2018-09-13T08:43:08.240Z,21.41
2018-09-13T08:44:08.217Z,21.46
2018-09-13T08:45:08.196Z,21.57
2018-09-13T08:46:08.181Z,21.59
2018-09-13T08:47:08.164Z,21.59
2018-09-13T08:48:08.147Z,21.57
2018-09-13T08:49:08.134Z,21.51
2018-09-13T08:50:08.115Z,21.59
2018-09-13T08:51:08.097Z,21.51
2018-09-13T08:52:08.085Z,21.41
2018-09-13T08:53:08.106Z,21.51
2018-09-13T08:54:08.050Z,21.45
2018-09-13T08:55:08.070Z,21.42
2018-09-13T08:56:08.017Z,21.48
2018-09-13T08:57:08.000Z,21.50
2018-09-13T08:58:07.984Z,21.63
2018-09-13T08:59:07.968Z,21.59
2018-09-13T09:00:07.952Z,21.63
2018-09-13T09:01:07.936Z,21.74
2018-09-13T09:02:07.922Z,21.75
2018-09-13T09:03:10.155Z,21.72
2018-09-13T09:04:07.885Z,21.60
2018-09-13T09:05:07.869Z,21.69
2018-09-13T09:06:07.916Z,21.78
2018-09-13T09:07:07.837Z,21.90
2018-09-13T09:08:07.821Z,21.82
2018-09-13T09:09:07.804Z,21.85
2018-09-13T09:10:07.788Z,21.79
2018-09-13T09:11:07.772Z,21.85
2018-09-13T09:12:07.757Z,21.90
2018-09-13T09:13:07.740Z,22.04
2018-09-13T09:14:07.725Z,22.09
2018-09-13T09:15:07.706Z,22.12
2018-09-13T09:16:07.691Z,22.14
2018-09-13T09:17:07.674Z,22.09
2018-09-13T09:18:07.658Z,22.10
2018-09-13T09:19:07.642Z,22.09
2018-09-13T09:20:07.626Z,22.22
2018-09-13T09:21:07.609Z,22.27
2018-09-13T09:22:07.593Z,22.41
2018-09-13T09:23:07.578Z,22.35
2018-09-13T09:24:07.593Z,22.28
2018-09-13T09:25:07.545Z,22.29
2018-09-13T09:26:07.529Z,22.35
2018-09-13T09:27:07.513Z,22.27
2018-09-13T09:28:07.497Z,22.43
2018-09-13T09:29:07.490Z,22.43
2018-09-13T09:30:07.465Z,22.38
2018-09-13T09:31:07.449Z,22.49
2018-09-13T09:32:07.432Z,22.59
2018-09-13T09:33:07.416Z,22.59
2018-09-13T09:34:07.400Z,22.69
2018-09-13T09:35:07.454Z,22.77
2018-09-13T09:36:07.369Z,22.83
2018-09-13T09:37:07.358Z,22.75
2018-09-13T09:38:07.338Z,22.86
2018-09-13T09:39:07.321Z,22.59
2018-09-13T09:40:07.305Z,22.60
2018-09-13T09:41:10.291Z,22.59
2018-09-13T09:42:07.273Z,22.60
2018-09-13T09:43:07.257Z,22.72
2018-09-13T09:44:07.256Z,22.60
2018-09-13T09:45:07.224Z,22.60
2018-09-13T09:46:07.213Z,22.78
2018-09-13T09:47:07.192Z,22.80
2018-09-13T09:48:07.192Z,22.90
2018-09-13T09:49:07.161Z,22.90
2018-09-13T09:50:07.164Z,22.94
2018-09-13T09:51:07.129Z,23.01
2018-09-13T09:52:07.184Z,23.09
2018-09-13T09:53:07.099Z,23.12
2018-09-13T09:54:07.083Z,23.01
2018-09-13T09:55:07.066Z,23.05
2018-09-13T09:56:07.113Z,23.14
2018-09-13T09:57:07.036Z,23.22
2018-09-13T09:58:07.021Z,23.14
2018-09-13T09:59:07.004Z,23.19
2018-09-13T10:00:06.991Z,23.05
2018-09-13T10:01:06.972Z,23.26
2018-09-13T10:02:06.957Z,23.11
2018-09-13T10:03:06.984Z,23.24
2018-09-13T10:04:06.926Z,23.31
2018-09-13T10:05:06.911Z,23.22
2018-09-13T10:06:06.894Z,23.19
2018-09-13T10:07:06.878Z,23.29
2018-09-13T10:08:06.863Z,23.43
2018-09-13T10:09:06.914Z,23.34
2018-09-13T10:10:06.867Z,23.31
2018-09-13T10:11:06.817Z,23.38
2018-09-13T10:12:06.804Z,23.22
2018-09-13T10:13:06.787Z,23.26
2018-09-13T10:14:06.774Z,23.55
2018-09-13T10:15:06.808Z,23.71
2018-09-13T10:16:06.779Z,23.85
2018-09-13T10:17:06.726Z,23.97
2018-09-13T10:18:06.712Z,23.98
2018-09-13T10:19:07.447Z,24.04
2018-09-13T10:20:06.681Z,23.98
2018-09-13T10:21:06.667Z,24.17
2018-09-13T10:22:06.651Z,24.20
2018-09-13T10:23:06.636Z,24.35
2018-09-13T10:24:06.622Z,24.38
2018-09-13T10:25:06.607Z,24.45
2018-09-13T10:26:06.592Z,24.32
2018-09-13T10:27:06.665Z,24.14
2018-09-13T10:28:06.562Z,24.23
2018-09-13T10:29:06.557Z,24.08
2018-09-13T10:30:06.534Z,23.90
2018-09-13T10:31:06.519Z,23.71
2018-09-13T10:32:06.503Z,23.67
2018-09-13T10:33:06.488Z,23.77
2018-09-13T10:34:06.475Z,23.71
2018-09-13T10:35:07.960Z,23.75
2018-09-13T10:36:06.444Z,23.83
2018-09-13T10:37:06.430Z,23.79
2018-09-13T10:38:06.415Z,23.85
2018-09-13T10:39:06.400Z,23.85
2018-09-13T10:40:06.387Z,23.85
2018-09-13T10:41:07.123Z,23.70
2018-09-13T10:42:06.357Z,23.70
2018-09-13T10:43:06.341Z,23.70
2018-09-13T10:44:06.331Z,23.75
2018-09-13T10:45:06.312Z,23.77
2018-09-13T10:46:06.297Z,23.75
2018-09-13T10:47:06.282Z,23.79
2018-09-13T10:48:06.388Z,23.72
2018-09-13T10:49:06.252Z,23.76
2018-09-13T10:50:06.238Z,23.82
2018-09-13T10:51:06.223Z,23.79
2018-09-13T10:52:06.226Z,23.83
2018-09-13T10:53:06.198Z,23.83
2018-09-13T10:54:06.178Z,23.77
2018-09-13T10:55:06.162Z,23.83
2018-09-13T10:56:06.148Z,23.86
2018-09-13T10:57:06.133Z,23.89
2018-09-13T10:58:06.120Z,23.95
2018-09-13T10:59:06.141Z,24.02
2018-09-13T11:00:06.089Z,24.07
2018-09-13T11:01:06.075Z,23.98
2018-09-13T11:02:06.059Z,24.05
2018-09-13T11:03:06.045Z,24.17
2018-09-13T11:04:06.040Z,24.14
2018-09-13T11:05:06.016Z,24.07
2018-09-13T11:06:05.999Z,24.16
2018-09-13T11:07:05.985Z,24.38
2018-09-13T11:08:05.970Z,24.53
2018-09-13T11:09:05.957Z,24.64
2018-09-13T11:10:05.941Z,24.80
2018-09-13T11:11:06.022Z,24.91
2018-09-13T11:12:06.661Z,25.01
2018-09-13T11:13:05.896Z,25.16
2018-09-13T11:14:05.882Z,25.12
2018-09-13T11:15:05.867Z,25.10
2018-09-13T11:16:05.855Z,25.19
2018-09-13T11:17:05.839Z,25.24
2018-09-13T11:18:05.826Z,25.10
2018-09-13T11:19:05.810Z,25.06
2018-09-13T11:20:05.796Z,25.09
2018-09-13T11:21:05.782Z,25.19
2018-09-13T11:22:05.773Z,25.24
2018-09-13T11:23:11.009Z,25.31
2018-09-13T11:24:05.740Z,25.34
2018-09-13T11:25:05.726Z,25.49
2018-09-13T11:26:05.712Z,25.62
2018-09-13T11:27:05.699Z,25.72
2018-09-13T11:28:05.684Z,25.79
2018-09-13T11:29:05.671Z,25.82
2018-09-13T11:30:05.658Z,25.54
2018-09-13T11:31:05.644Z,25.54
2018-09-13T11:32:05.630Z,25.62
2018-09-13T11:33:05.616Z,25.61
2018-09-13T11:34:05.603Z,25.64
2018-09-13T11:35:05.590Z,25.49
2018-09-13T11:36:05.576Z,25.27
2018-09-13T11:37:05.562Z,24.94
2018-09-13T11:38:05.549Z,25.02
2018-09-13T11:39:05.536Z,25.19
2018-09-13T11:40:05.625Z,25.20
2018-09-13T11:41:05.623Z,25.17
2018-09-13T11:42:05.494Z,25.46
2018-09-13T11:43:05.481Z,25.47
2018-09-13T11:44:05.469Z,25.56
2018-09-13T11:45:05.454Z,25.74
2018-09-13T11:46:05.442Z,25.83
2018-09-13T11:47:05.427Z,25.82
2018-09-13T11:48:05.418Z,25.79
2018-09-13T11:49:05.402Z,25.87
2018-09-13T11:50:05.389Z,26.06
2018-09-13T11:51:05.377Z,26.15
2018-09-13T11:52:05.361Z,26.35
2018-09-13T11:53:05.349Z,26.25
2018-09-13T11:54:05.416Z,26.35
2018-09-13T11:55:05.321Z,26.46
2018-09-13T11:56:05.309Z,26.49
2018-09-13T11:57:05.295Z,26.52
2018-09-13T11:58:05.283Z,26.37
2018-09-13T11:59:05.272Z,25.98
2018-09-13T12:00:05.258Z,26.15
2018-09-13T12:01:05.260Z,26.15
2018-09-13T12:02:05.307Z,26.39
2018-09-13T12:03:05.218Z,26.15
2018-09-13T12:04:05.206Z,26.04
2018-09-13T12:05:05.194Z,26.25
2018-09-13T12:06:05.182Z,26.37
2018-09-13T12:07:05.167Z,26.52
2018-09-13T12:08:05.156Z,26.27
2018-09-13T12:09:05.142Z,26.39
2018-09-13T12:10:05.130Z,26.50
2018-09-13T12:11:05.123Z,26.62
2018-09-13T12:12:05.105Z,26.47
2018-09-13T12:13:05.092Z,26.32
2018-09-13T12:14:05.080Z,26.28
2018-09-13T12:15:05.067Z,26.31
2018-09-13T12:16:05.055Z,26.54
2018-09-13T12:17:05.043Z,26.42
2018-09-13T12:18:05.178Z,26.43
2018-09-13T12:19:05.017Z,26.37
2018-09-13T12:20:05.006Z,26.42
2018-09-13T12:21:04.993Z,26.35
2018-09-13T12:22:04.981Z,26.29
2018-09-13T12:23:09.473Z,26.11
2018-09-13T12:24:04.956Z,26.09
2018-09-13T12:25:04.943Z,26.18
2018-09-13T12:26:04.931Z,26.22
2018-09-13T12:27:04.919Z,26.31
2018-09-13T12:28:04.907Z,26.11
2018-09-13T12:29:04.893Z,25.93
2018-09-13T12:30:04.889Z,26.20
2018-09-13T12:31:04.868Z,26.25
2018-09-13T12:32:04.856Z,26.18
2018-09-13T12:33:04.843Z,26.09
2018-09-13T12:34:04.831Z,26.08
2018-09-13T12:35:04.818Z,26.17
2018-09-13T12:36:04.806Z,25.98
2018-09-13T12:37:04.794Z,26.17
2018-09-13T12:38:04.780Z,26.25
2018-09-13T12:39:04.768Z,26.25
2018-09-13T12:40:04.755Z,26.29
2018-09-13T12:41:04.743Z,26.40
2018-09-13T12:42:04.730Z,26.32
2018-09-13T12:43:04.717Z,26.42
2018-09-13T12:44:04.704Z,26.47
2018-09-13T12:45:09.196Z,26.65
2018-09-13T12:46:04.678Z,26.64
2018-09-13T12:47:04.664Z,26.68
2018-09-13T12:48:04.651Z,26.64
2018-09-13T12:49:04.648Z,26.61
2018-09-13T12:50:04.626Z,26.65
2018-09-13T12:51:04.612Z,26.58
2018-09-13T12:52:04.619Z,26.49